Time;durP1;ratioP1;P1;durP2;ratioP2;P2;SDS_P1;SDS_P2;PMS_P1;PMS_P2;Temp;Humidity;BMP_temperature;BMP_pressure;BME280_temperature;BME280_humidity;BME280_pressure;Samples;Min_cycle;Max_cycle;Signal;HPM_P1;HPM_P2
2023/07/01 00:01:33;;;;;;;2.50;1.05;;;17.30;99.90;;;;;;4905227;29;20047;-92
2023/07/01 00:03:59;;;;;;;5.18;1.02;;;17.30;99.90;;;;;;4903443;29;20031;-91
2023/07/01 00:06:26;;;;;;;2.67;0.93;;;17.30;99.90;;;;;;4901846;29;20040;-90
2023/07/01 00:08:53;;;;;;;5.03;1.60;;;17.40;99.90;;;;;;4903680;29;20046;-92
2023/07/01 00:11:19;;;;;;;3.85;1.27;;;17.30;99.90;;;;;;4886953;29;20147;-92
2023/07/01 00:13:45;;;;;;;5.35;1.25;;;17.40;99.90;;;;;;4910345;29;20458;-93
2023/07/01 00:16:13;;;;;;;6.10;1.10;;;17.40;99.90;;;;;;4902800;29;20031;-91
2023/07/01 00:18:40;;;;;;;4.13;1.30;;;17.40;99.90;;;;;;4875848;29;20040;-94
2023/07/01 00:21:07;;;;;;;5.88;1.15;;;17.40;99.90;;;;;;4898023;29;20044;-92
2023/07/01 00:23:33;;;;;;;5.03;1.20;;;17.40;99.90;;;;;;4884890;29;20044;-91
2023/07/01 00:25:59;;;;;;;3.88;1.10;;;17.40;99.90;;;;;;4904814;29;20038;-92
2023/07/01 00:28:25;;;;;;;3.72;1.17;;;17.40;99.90;;;;;;4885163;29;20040;-91
2023/07/01 00:30:51;;;;;;;5.60;1.17;;;17.40;99.90;;;;;;4891666;29;20063;-92
2023/07/01 00:33:17;;;;;;;2.40;0.88;;;17.40;99.90;;;;;;4899078;29;20078;-91
2023/07/01 00:35:42;;;;;;;4.93;1.20;;;17.40;99.90;;;;;;4900755;29;20051;-90
2023/07/01 00:38:09;;;;;;;4.47;1.17;;;17.40;99.90;;;;;;4869043;29;20094;-92
2023/07/01 00:40:34;;;;;;;4.13;1.23;;;17.40;99.90;;;;;;4916728;29;20047;-90
2023/07/01 00:43:00;;;;;;;5.05;1.00;;;17.40;99.90;;;;;;4858940;29;20460;-92
2023/07/01 00:45:26;;;;;;;3.10;1.30;;;17.40;99.90;;;;;;4897642;29;20044;-91
2023/07/01 00:47:52;;;;;;;2.72;1.02;;;17.40;99.90;;;;;;4889997;29;20476;-92
2023/07/01 00:50:18;;;;;;;4.60;1.30;;;17.40;99.90;;;;;;4902140;29;20039;-93
2023/07/01 00:52:43;;;;;;;1.50;0.70;;;17.40;99.90;;;;;;4872845;29;20071;-94
2023/07/01 00:55:10;;;;;;;2.45;1.05;;;17.40;99.90;;;;;;4898310;29;20051;-92
2023/07/01 00:57:36;;;;;;;3.88;1.23;;;17.40;99.90;;;;;;4902990;29;20686;-93
2023/07/01 01:00:08;;;;;;;2.70;1.05;;;17.40;99.90;;;;;;4889369;29;20048;-92
2023/07/01 01:02:40;;;;;;;2.75;1.10;;;17.40;99.90;;;;;;4904004;29;20142;-93
2023/07/01 01:05:12;;;;;;;2.70;1.00;;;17.40;99.90;;;;;;4902526;29;20090;-92
2023/07/01 01:08:00;;;;;;;3.42;1.00;;;17.40;99.90;;;;;;4900343;29;20395;-92
2023/07/01 01:10:27;;;;;;;3.00;1.48;;;17.40;99.90;;;;;;4900544;29;20131;-92
2023/07/01 01:12:57;;;;;;;2.65;0.90;;;17.40;99.90;;;;;;4898439;29;20100;-91
2023/07/01 01:15:25;;;;;;;2.85;0.82;;;17.40;99.90;;;;;;4901909;29;20090;-91
2023/07/01 01:17:55;;;;;;;3.25;1.08;;;17.40;99.90;;;;;;4913952;29;20039;-92
2023/07/01 01:20:22;;;;;;;1.73;1.00;;;17.40;99.90;;;;;;4900909;29;20055;-92
2023/07/01 01:23:02;;;;;;;2.65;0.90;;;17.40;99.90;;;;;;4903650;29;20035;-90
2023/07/01 01:25:42;;;;;;;4.13;1.10;;;17.40;99.90;;;;;;4918432;29;20078;-93
2023/07/01 01:28:09;;;;;;;3.50;1.00;;;17.40;99.90;;;;;;4914767;29;20040;-92
2023/07/01 01:30:35;;;;;;;1.73;0.90;;;17.40;99.90;;;;;;4871505;29;20167;-91
2023/07/01 01:33:02;;;;;;;1.95;0.90;;;17.40;99.90;;;;;;4888569;29;20130;-92
2023/07/01 01:35:28;;;;;;;3.70;1.15;;;17.40;99.90;;;;;;4888837;29;20106;-93
2023/07/01 01:38:08;;;;;;;4.53;1.10;;;17.40;99.90;;;;;;4873118;29;20043;-92
2023/07/01 01:40:43;;;;;;;3.92;0.98;;;17.30;99.90;;;;;;4931543;29;20043;-92
2023/07/01 01:43:17;;;;;;;2.15;1.20;;;17.30;99.90;;;;;;4933550;29;20126;-93
2023/07/01 01:45:44;;;;;;;3.38;1.10;;;17.30;99.90;;;;;;4903329;29;20039;-91
2023/07/01 01:48:10;;;;;;;;;;;17.30;99.90;;;;;;4891520;29;20644;-92
2023/07/01 01:50:38;;;;;;;3.22;1.42;;;17.30;99.90;;;;;;4909545;29;19922;-92
2023/07/01 01:53:05;;;;;;;3.45;1.30;;;17.20;99.90;;;;;;4908657;29;20039;-94
2023/07/01 01:55:31;;;;;;;5.88;1.30;;;17.10;99.90;;;;;;4892371;29;20047;-94
2023/07/01 01:57:59;;;;;;;3.03;1.13;;;17.00;99.90;;;;;;4881326;29;20131;-93
2023/07/01 02:00:25;;;;;;;4.55;1.52;;;16.90;99.90;;;;;;4881178;29;20488;-91
2023/07/01 02:02:51;;;;;;;4.30;1.20;;;16.80;99.90;;;;;;4887729;29;20094;-91
2023/07/01 02:05:16;;;;;;;3.60;1.65;;;16.80;99.90;;;;;;4880797;29;20502;-92
2023/07/01 02:07:42;;;;;;;3.92;1.38;;;16.60;99.90;;;;;;4900084;29;20123;-93
2023/07/01 02:10:08;;;;;;;3.15;1.13;;;16.60;99.90;;;;;;4881672;29;20055;-94
2023/07/01 02:12:34;;;;;;;3.90;1.42;;;16.50;99.90;;;;;;4870993;29;20385;-93
2023/07/01 02:14:59;;;;;;;4.28;1.80;;;16.40;99.90;;;;;;4883942;29;20040;-91
2023/07/01 02:17:25;;;;;;;3.05;1.40;;;16.40;99.90;;;;;;4887048;29;20039;-93
2023/07/01 02:19:51;;;;;;;4.00;1.20;;;16.30;99.90;;;;;;4889279;29;20372;-91
2023/07/01 02:22:17;;;;;;;5.60;1.38;;;16.20;99.90;;;;;;4888257;29;20039;-93
2023/07/01 02:24:43;;;;;;;2.28;1.20;;;16.10;99.90;;;;;;4887249;29;20421;-92
2023/07/01 02:27:08;;;;;;;4.43;1.40;;;16.10;99.90;;;;;;4895907;29;20111;-92
2023/07/01 02:29:35;;;;;;;4.18;1.88;;;16.10;99.90;;;;;;4887376;29;20103;-90
2023/07/01 02:32:00;;;;;;;3.70;1.45;;;16.00;99.90;;;;;;4902033;29;20127;-92
2023/07/01 02:34:27;;;;;;;3.85;1.65;;;16.00;99.90;;;;;;4895572;29;20083;-91
2023/07/01 02:36:54;;;;;;;2.92;1.58;;;16.00;99.90;;;;;;4875011;29;20048;-92
2023/07/01 02:39:20;;;;;;;4.00;1.85;;;15.90;99.90;;;;;;4879444;29;20048;-94
2023/07/01 02:41:46;;;;;;;3.53;1.50;;;16.00;99.90;;;;;;4886964;29;20048;-92
2023/07/01 02:44:11;;;;;;;2.90;1.63;;;15.90;99.90;;;;;;4890840;29;20040;-93
2023/07/01 02:46:37;;;;;;;3.20;1.73;;;16.00;99.90;;;;;;4872522;29;20047;-91
2023/07/01 02:49:04;;;;;;;3.70;1.52;;;16.00;99.90;;;;;;4884043;29;20039;-94
2023/07/01 02:51:30;;;;;;;4.43;1.80;;;16.00;99.90;;;;;;4886406;29;20087;-91
2023/07/01 02:53:56;;;;;;;5.88;2.13;;;16.10;99.90;;;;;;4892333;29;20109;-91
2023/07/01 02:56:21;;;;;;;4.20;1.70;;;16.10;99.90;;;;;;4874317;29;20134;-92
2023/07/01 02:58:47;;;;;;;3.30;1.80;;;16.10;99.90;;;;;;4896409;29;20510;-93
2023/07/01 03:01:13;;;;;;;4.88;1.80;;;16.20;99.90;;;;;;4872632;29;20532;-93
2023/07/01 03:03:40;;;;;;;6.00;2.15;;;16.20;99.90;;;;;;4889767;29;20044;-94
2023/07/01 03:06:06;;;;;;;4.33;1.97;;;16.20;99.90;;;;;;4888979;29;20043;-92
2023/07/01 03:08:32;;;;;;;5.10;1.90;;;16.30;99.90;;;;;;4889893;29;20048;-93
2023/07/01 03:10:58;;;;;;;5.22;1.90;;;16.30;99.90;;;;;;4884095;29;20522;-93
2023/07/01 03:13:23;;;;;;;4.75;2.03;;;16.30;99.90;;;;;;4887880;29;20627;-92
2023/07/01 03:15:50;;;;;;;5.05;1.80;;;16.30;99.90;;;;;;4871494;29;20058;-92
2023/07/01 03:18:16;;;;;;;4.35;2.20;;;16.30;99.90;;;;;;4876027;29;20128;-92
2023/07/01 03:20:41;;;;;;;3.65;1.83;;;16.40;99.90;;;;;;4879711;29;20123;-92
2023/07/01 03:23:07;;;;;;;3.20;1.90;;;16.40;99.90;;;;;;4868053;29;20032;-92
2023/07/01 03:25:33;;;;;;;4.60;2.50;;;16.40;99.90;;;;;;4859997;29;20040;-91
2023/07/01 03:27:58;;;;;;;2.80;1.90;;;16.40;99.90;;;;;;4872832;29;20040;-91
2023/07/01 03:30:33;;;;;;;4.82;2.20;;;16.30;99.90;;;;;;4900307;29;20075;-92
2023/07/01 03:32:59;;;;;;;4.72;2.10;;;16.30;99.90;;;;;;4873376;29;20130;-93
2023/07/01 03:35:24;;;;;;;4.32;2.45;;;16.30;99.90;;;;;;4884743;29;20131;-92
2023/07/01 03:37:50;;;;;;;2.90;2.00;;;16.30;99.90;;;;;;4868142;29;20456;-91
2023/07/01 03:40:16;;;;;;;4.95;2.33;;;16.30;99.90;;;;;;4869634;29;20078;-91
2023/07/01 03:42:42;;;;;;;4.35;2.40;;;16.20;99.90;;;;;;4882100;29;20131;-92
2023/07/01 03:45:10;;;;;;;4.20;2.20;;;16.20;99.90;;;;;;4885494;29;20046;-91
2023/07/01 03:47:38;;;;;;;4.80;2.08;;;16.20;99.90;;;;;;4900771;29;20036;-92
2023/07/01 03:50:07;;;;;;;4.40;2.00;;;16.20;99.90;;;;;;4894794;29;20040;-92
2023/07/01 03:52:36;;;;;;;3.72;1.88;;;16.20;99.90;;;;;;4876355;29;20488;-91
2023/07/01 03:55:03;;;;;;;3.85;1.98;;;16.20;99.90;;;;;;4886664;29;20051;-92
2023/07/01 03:57:29;;;;;;;4.97;1.92;;;16.10;99.90;;;;;;4880907;29;20111;-92
2023/07/01 03:59:55;;;;;;;5.53;2.25;;;16.20;99.90;;;;;;4901900;29;20044;-93
2023/07/01 04:02:21;;;;;;;4.15;1.98;;;16.10;99.90;;;;;;4882660;29;20090;-92
2023/07/01 04:04:47;;;;;;;6.75;2.47;;;16.10;99.90;;;;;;4884109;29;20037;-91
2023/07/01 04:07:13;;;;;;;3.15;2.00;;;16.10;99.90;;;;;;4881719;29;20480;-92
2023/07/01 04:09:39;;;;;;;5.00;1.90;;;16.10;99.90;;;;;;4900560;29;20048;-90
2023/07/01 04:12:05;;;;;;;3.13;1.60;;;16.10;99.90;;;;;;4900938;29;20544;-94
2023/07/01 04:14:31;;;;;;;3.27;1.90;;;16.10;99.90;;;;;;4885206;29;20095;-92
2023/07/01 04:16:57;;;;;;;4.28;2.10;;;16.10;99.90;;;;;;4886601;29;20071;-92
2023/07/01 04:19:23;;;;;;;3.05;1.58;;;16.10;99.90;;;;;;4870127;29;20044;-92
2023/07/01 04:21:51;;;;;;;3.20;1.70;;;16.10;99.90;;;;;;4900191;29;20044;-93
2023/07/01 04:24:17;;;;;;;3.20;1.88;;;16.10;99.90;;;;;;4868185;29;20578;-91
2023/07/01 04:26:44;;;;;;;8.60;1.67;;;16.10;99.90;;;;;;4879746;29;20040;-92
2023/07/01 04:29:10;;;;;;;2.08;1.30;;;16.10;99.90;;;;;;4873593;29;20047;-92
2023/07/01 04:31:36;;;;;;;3.37;1.63;;;16.20;99.90;;;;;;4880789;29;20040;-93
2023/07/01 04:34:01;;;;;;;5.95;1.88;;;16.20;99.90;;;;;;4889376;29;20455;-92
2023/07/01 04:36:27;;;;;;;3.88;2.08;;;16.20;99.90;;;;;;4870417;29;20052;-91
2023/07/01 04:38:53;;;;;;;5.00;1.60;;;16.20;99.90;;;;;;4866594;29;20107;-92
2023/07/01 04:41:19;;;;;;;3.55;1.80;;;16.20;99.90;;;;;;4869453;29;20131;-93
2023/07/01 04:43:44;;;;;;;2.95;1.60;;;16.20;99.90;;;;;;4887289;29;20440;-91
2023/07/01 04:46:10;;;;;;;2.63;1.60;;;16.20;99.90;;;;;;4867655;29;20044;-92
2023/07/01 04:48:36;;;;;;;3.30;1.70;;;16.20;99.90;;;;;;4869918;29;20132;-92
2023/07/01 04:51:01;;;;;;;3.90;1.88;;;16.30;99.90;;;;;;4865270;29;20494;-89
2023/07/01 04:53:28;;;;;;;5.60;1.90;;;16.30;99.90;;;;;;4885299;29;20044;-91
2023/07/01 04:55:53;;;;;;;2.65;1.70;;;16.30;99.90;;;;;;4901798;29;20055;-93
2023/07/01 04:58:19;;;;;;;4.43;1.77;;;16.30;99.90;;;;;;4883529;29;20496;-92
2023/07/01 05:00:45;;;;;;;2.88;1.60;;;16.30;99.90;;;;;;4915558;29;20044;-92
2023/07/01 05:03:11;;;;;;;3.00;1.92;;;16.30;99.90;;;;;;4885406;29;20047;-92
2023/07/01 05:05:36;;;;;;;2.95;1.80;;;16.30;99.90;;;;;;4902379;29;20395;-93
2023/07/01 05:08:02;;;;;;;5.13;2.25;;;16.40;99.90;;;;;;4899832;29;20063;-91
2023/07/01 05:10:28;;;;;;;3.17;2.28;;;16.40;99.90;;;;;;4884167;29;20046;-92
2023/07/01 05:12:54;;;;;;;5.50;2.47;;;16.40;99.90;;;;;;4889427;29;20127;-92
2023/07/01 05:15:20;;;;;;;5.20;2.42;;;16.40;99.90;;;;;;4905337;29;20131;-92
2023/07/01 05:17:45;;;;;;;4.80;2.50;;;16.40;99.90;;;;;;4881066;29;20039;-92
2023/07/01 05:20:12;;;;;;;3.20;2.10;;;16.50;99.90;;;;;;4881797;29;20039;-92
2023/07/01 05:22:37;;;;;;;3.28;2.10;;;16.50;99.90;;;;;;4861527;29;20488;-93
2023/07/01 05:25:04;;;;;;;5.38;2.28;;;16.50;99.90;;;;;;4884001;29;20099;-91
2023/07/01 05:27:30;;;;;;;4.10;2.03;;;16.50;99.90;;;;;;4908131;29;20040;-93
2023/07/01 05:29:57;;;;;;;5.45;2.25;;;16.60;99.90;;;;;;4891308;29;20211;-92
2023/07/01 05:32:23;;;;;;;4.40;2.13;;;16.60;99.90;;;;;;4893316;29;20103;-91
2023/07/01 05:34:49;;;;;;;3.67;2.00;;;16.60;99.90;;;;;;4886981;29;20064;-93
2023/07/01 05:37:15;;;;;;;3.83;2.15;;;16.60;99.90;;;;;;4888140;29;20683;-92
2023/07/01 05:39:41;;;;;;;3.78;2.22;;;16.70;99.90;;;;;;4888035;29;20123;-92
2023/07/01 05:42:06;;;;;;;5.90;2.00;;;16.70;99.90;;;;;;4879394;29;20127;-92
2023/07/01 05:44:32;;;;;;;3.30;2.00;;;16.70;99.90;;;;;;4888331;29;20036;-93
2023/07/01 05:46:58;;;;;;;3.80;2.38;;;16.70;99.90;;;;;;4870456;29;20067;-92
2023/07/01 05:49:24;;;;;;;4.00;2.10;;;16.80;99.90;;;;;;4885715;29;20249;-94
2023/07/01 05:51:51;;;;;;;3.58;2.30;;;16.80;99.90;;;;;;4878117;29;20055;-93
2023/07/01 05:54:17;;;;;;;3.88;2.08;;;16.80;99.90;;;;;;4873407;29;20503;-92
2023/07/01 05:56:45;;;;;;;3.65;2.15;;;16.80;99.90;;;;;;4896974;29;20055;-92
2023/07/01 05:59:13;;;;;;;3.70;2.17;;;16.80;99.90;;;;;;4873495;29;20035;-93
2023/07/01 06:01:39;;;;;;;4.07;2.03;;;16.80;99.90;;;;;;4873112;29;20036;-93
2023/07/01 06:04:05;;;;;;;4.82;2.15;;;16.80;99.90;;;;;;4888887;29;20184;-93
2023/07/01 06:06:30;;;;;;;3.22;2.28;;;16.90;99.90;;;;;;4882203;29;20127;-93
2023/07/01 06:08:56;;;;;;;4.13;2.17;;;16.90;99.90;;;;;;4876632;29;20448;-93
2023/07/01 06:11:22;;;;;;;2.92;1.88;;;16.90;99.90;;;;;;4881144;29;20086;-91
2023/07/01 06:13:48;;;;;;;3.25;2.20;;;16.90;99.90;;;;;;4889790;29;20134;-93
2023/07/01 06:16:14;;;;;;;3.55;2.20;;;16.90;99.90;;;;;;4914195;29;20047;-92
2023/07/01 06:18:41;;;;;;;3.50;1.80;;;17.00;99.90;;;;;;4890392;29;20372;-92
2023/07/01 06:21:08;;;;;;;4.45;2.17;;;17.00;99.90;;;;;;4905446;29;20039;-93
2023/07/01 06:23:37;;;;;;;3.88;2.40;;;17.00;99.90;;;;;;4888271;29;20040;-92
2023/07/01 06:26:04;;;;;;;7.40;2.50;;;17.00;99.90;;;;;;4873423;29;20051;-92
2023/07/01 06:28:29;;;;;;;3.33;2.17;;;17.00;99.90;;;;;;4873228;29;20095;-92
2023/07/01 06:30:56;;;;;;;2.90;2.13;;;17.00;99.90;;;;;;4893375;29;20448;-93
2023/07/01 06:33:22;;;;;;;6.40;3.10;;;16.90;99.90;;;;;;4890459;29;20111;-94
2023/07/01 06:35:48;;;;;;;4.03;2.70;;;16.90;99.90;;;;;;4909201;29;20115;-92
2023/07/01 06:38:14;;;;;;;6.07;3.22;;;16.80;99.90;;;;;;4890125;29;20057;-90
2023/07/01 06:40:39;;;;;;;5.20;3.20;;;16.80;99.90;;;;;;4875171;29;20033;-91
2023/07/01 06:43:05;;;;;;;5.03;2.97;;;16.80;99.90;;;;;;4888688;29;20095;-90
2023/07/01 06:45:32;;;;;;;5.13;3.47;;;16.70;99.90;;;;;;4896521;29;20040;-89
2023/07/01 06:48:01;;;;;;;5.00;3.30;;;16.70;99.90;;;;;;4934943;29;20115;-92
2023/07/01 06:50:27;;;;;;;5.38;2.58;;;16.70;99.90;;;;;;4905222;29;20052;-90
2023/07/01 06:52:52;;;;;;;4.32;2.67;;;16.70;99.90;;;;;;4881988;29;20040;-90
2023/07/01 06:55:19;;;;;;;4.32;2.85;;;16.70;99.90;;;;;;4892035;29;20044;-91
2023/07/01 06:57:44;;;;;;;4.90;2.80;;;16.70;99.90;;;;;;4900906;29;20501;-91
2023/07/01 07:00:12;;;;;;;5.40;3.10;;;16.70;99.90;;;;;;4891629;29;20040;-90
2023/07/01 07:02:41;;;;;;;4.43;3.22;;;16.70;99.90;;;;;;4904925;29;20036;-91
2023/07/01 07:05:09;;;;;;;3.65;3.08;;;16.70;99.90;;;;;;4870831;29;20051;-90
2023/07/01 07:07:35;;;;;;;4.25;2.97;;;16.70;99.90;;;;;;4872825;29;20391;-91
2023/07/01 07:10:01;;;;;;;3.72;3.25;;;16.70;99.90;;;;;;4877758;29;20051;-91
2023/07/01 07:12:27;;;;;;;4.93;3.13;;;16.70;99.90;;;;;;4879302;29;20043;-91
2023/07/01 07:14:52;;;;;;;5.85;2.85;;;16.70;99.90;;;;;;4890240;29;20088;-91
2023/07/01 07:17:18;;;;;;;4.10;2.92;;;16.70;99.90;;;;;;4884894;29;20047;-94
2023/07/01 07:19:44;;;;;;;4.35;2.83;;;16.70;99.90;;;;;;4870793;29;20050;-90
2023/07/01 07:22:10;;;;;;;4.70;3.10;;;16.70;99.90;;;;;;4875524;29;20127;-91
2023/07/01 07:24:36;;;;;;;3.22;2.92;;;16.70;99.90;;;;;;4900292;29;20061;-92
2023/07/01 07:27:02;;;;;;;3.10;2.80;;;16.80;99.90;;;;;;4901148;29;20048;-91
2023/07/01 07:29:29;;;;;;;3.20;2.90;;;16.80;99.90;;;;;;4863406;29;20119;-92
2023/07/01 07:32:25;;;;;;;4.00;2.45;;;16.80;99.90;;;;;;4904476;29;20046;-91
2023/07/01 07:35:30;;;;;;;2.60;2.40;;;16.90;99.90;;;;;;4885718;29;20052;-92
2023/07/01 07:37:55;;;;;;;4.25;2.85;;;16.80;99.90;;;;;;4901881;29;20058;-91
2023/07/01 07:40:21;;;;;;;2.65;2.28;;;16.90;99.90;;;;;;4903660;29;20040;-91
2023/07/01 07:42:53;;;;;;;3.25;2.40;;;16.90;99.90;;;;;;4903589;29;20044;-92
2023/07/01 07:45:20;;;;;;;2.50;2.30;;;17.00;99.90;;;;;;4903223;29;20040;-94
2023/07/01 07:47:46;;;;;;;3.13;2.30;;;17.00;99.90;;;;;;4882142;29;20051;-91
2023/07/01 07:50:14;;;;;;;3.67;1.90;;;17.00;99.90;;;;;;4887707;29;20047;-93
2023/07/01 07:52:40;;;;;;;2.10;1.90;;;17.10;99.90;;;;;;4886422;29;20047;-93
2023/07/01 07:55:06;;;;;;;3.33;2.28;;;17.10;99.90;;;;;;4867587;29;20043;-93
2023/07/01 07:57:32;;;;;;;3.30;2.40;;;17.10;99.90;;;;;;4867650;29;20487;-93
2023/07/01 07:59:59;;;;;;;3.38;2.25;;;17.10;99.90;;;;;;4882080;29;20047;-92
2023/07/01 08:02:24;;;;;;;2.53;2.03;;;17.10;99.90;;;;;;4876563;29;20067;-92
2023/07/01 08:04:50;;;;;;;3.88;2.40;;;17.10;99.90;;;;;;4881184;29;20062;-92
2023/07/01 08:07:19;;;;;;;4.03;2.20;;;17.10;99.90;;;;;;4882424;29;20103;-93
2023/07/01 08:09:45;;;;;;;2.47;2.00;;;17.10;99.90;;;;;;4903165;29;20527;-94
2023/07/01 08:12:11;;;;;;;1.85;1.70;;;17.20;99.90;;;;;;4902802;29;20130;-94
2023/07/01 08:14:37;;;;;;;2.92;1.70;;;17.00;99.90;;;;;;4888910;29;20039;-93
2023/07/01 08:17:03;;;;;;;2.90;1.60;;;17.30;99.90;;;;;;4902759;29;20496;-94
2023/07/01 08:19:29;;;;;;;1.60;1.50;;;17.40;99.90;;;;;;4872857;29;20099;-93
2023/07/01 08:21:55;;;;;;;3.05;1.80;;;17.50;99.90;;;;;;4872432;29;20098;-94
2023/07/01 08:24:23;;;;;;;1.83;1.60;;;17.60;99.90;;;;;;4887071;29;20040;-93
2023/07/01 08:26:49;;;;;;;2.10;1.90;;;17.60;99.90;;;;;;4885353;29;20035;-93
2023/07/01 08:29:15;;;;;;;3.53;1.85;;;17.60;99.90;;;;;;4870187;29;20047;-95
2023/07/01 08:31:41;;;;;;;2.20;2.00;;;17.60;99.90;;;;;;4868296;29;20040;-92
2023/07/01 08:34:07;;;;;;;2.20;2.00;;;17.60;99.90;;;;;;4869747;29;20487;-93
2023/07/01 08:36:33;;;;;;;2.22;2.03;;;17.60;99.90;;;;;;4873047;29;20036;-94
2023/07/01 08:38:59;;;;;;;2.90;1.90;;;17.60;99.90;;;;;;4904476;29;20496;-94
2023/07/01 08:41:25;;;;;;;3.08;2.20;;;17.60;99.90;;;;;;4882564;29;20055;-95
2023/07/01 08:43:55;;;;;;;2.50;2.30;;;17.60;99.90;;;;;;4872471;29;20054;-94
2023/07/01 08:46:22;;;;;;;2.40;2.20;;;17.60;99.90;;;;;;4886332;29;20051;-94
2023/07/01 08:48:48;;;;;;;2.28;2.08;;;17.60;99.90;;;;;;4867921;29;20464;-94
2023/07/01 08:51:35;;;;;;;2.50;1.92;;;17.60;99.90;;;;;;4881154;29;20038;-93
2023/07/01 08:54:03;;;;;;;2.30;2.10;;;17.70;99.90;;;;;;4918969;29;20035;-90
2023/07/01 08:56:29;;;;;;;2.40;2.20;;;17.70;99.90;;;;;;4920228;28;20019;-89
2023/07/01 08:58:55;;;;;;;2.10;1.90;;;17.80;99.90;;;;;;4917858;29;20050;-92
2023/07/01 09:01:21;;;;;;;2.95;1.83;;;17.90;99.90;;;;;;4922226;28;20044;-89
2023/07/01 09:03:48;;;;;;;1.95;1.80;;;18.00;99.90;;;;;;4922019;29;20118;-85
2023/07/01 09:06:14;;;;;;;2.90;1.98;;;18.10;99.90;;;;;;4886910;29;20044;-90
2023/07/01 09:08:39;;;;;;;1.92;1.60;;;18.10;99.90;;;;;;4919989;29;20043;-89
2023/07/01 09:11:09;;;;;;;1.63;1.52;;;18.10;99.90;;;;;;4884893;29;20063;-90
2023/07/01 09:13:35;;;;;;;1.70;1.60;;;18.20;99.90;;;;;;4884371;29;20046;-89
2023/07/01 09:16:01;;;;;;;1.80;1.70;;;18.20;99.90;;;;;;4913323;29;20032;-89
2023/07/01 09:18:30;;;;;;;1.63;1.52;;;18.20;99.90;;;;;;4869324;29;20059;-90
2023/07/01 09:20:58;;;;;;;2.10;1.60;;;18.30;99.90;;;;;;4900219;29;20044;-89
2023/07/01 09:23:35;;;;;;;2.53;1.70;;;18.30;99.90;;;;;;4903618;29;20086;-90
2023/07/01 09:26:07;;;;;;;1.80;1.60;;;18.30;99.90;;;;;;4902093;29;20039;-90
2023/07/01 09:28:34;;;;;;;1.70;1.60;;;18.30;99.90;;;;;;4892034;29;20048;-89
2023/07/01 09:31:05;;;;;;;1.92;1.58;;;18.40;99.90;;;;;;4881145;29;20047;-89
2023/07/01 09:33:31;;;;;;;1.75;1.42;;;18.40;99.90;;;;;;4903612;29;20101;-89
2023/07/01 09:35:57;;;;;;;1.70;1.50;;;18.50;99.90;;;;;;4889045;29;20099;-88
2023/07/01 09:38:26;;;;;;;1.75;1.50;;;18.50;99.90;;;;;;4872643;29;20079;-90
2023/07/01 09:40:52;;;;;;;1.70;1.55;;;18.60;99.90;;;;;;4883272;29;20080;-88
2023/07/01 09:43:19;;;;;;;1.45;1.35;;;18.60;99.90;;;;;;4902661;29;20131;-90
2023/07/01 09:45:57;;;;;;;;;;;18.70;99.90;;;;;;4912132;29;20048;-92
2023/07/01 09:48:23;;;;;;;1.50;1.40;;;18.70;99.90;;;;;;4931519;29;19950;-91
2023/07/01 09:50:50;;;;;;;1.33;1.23;;;18.70;99.90;;;;;;4871275;29;20064;-93
2023/07/01 09:53:22;;;;;;;1.70;1.60;;;18.70;99.90;;;;;;4881150;29;20043;-91
2023/07/01 09:55:49;;;;;;;1.55;1.45;;;18.70;99.90;;;;;;4896711;29;20043;-91
2023/07/01 09:58:17;;;;;;;1.70;1.60;;;18.70;99.90;;;;;;4903454;29;20099;-92
2023/07/01 10:00:44;;;;;;;1.48;1.38;;;18.80;99.90;;;;;;4873782;29;20072;-93
2023/07/01 10:03:10;;;;;;;1.10;0.98;;;18.80;99.90;;;;;;4889822;29;20056;-92
2023/07/01 10:05:37;;;;;;;1.40;1.30;;;18.80;99.90;;;;;;4903235;29;20036;-94
2023/07/01 10:08:02;;;;;;;1.40;1.20;;;18.80;99.90;;;;;;4897543;29;20038;-95
2023/07/01 10:10:28;;;;;;;1.10;1.00;;;18.80;99.90;;;;;;4919374;29;20041;-95
2023/07/01 10:13:01;;;;;;;0.80;0.80;;;19.00;99.90;;;;;;4906867;29;20035;-95
2023/07/01 10:15:32;;;;;;;1.10;1.00;;;19.10;99.90;;;;;;4918294;29;20087;-94
2023/07/01 10:17:58;;;;;;;2.25;0.77;;;19.10;99.90;;;;;;4887866;29;20067;-95
2023/07/01 10:20:30;;;;;;;2.23;1.07;;;19.10;99.90;;;;;;4891267;29;20040;-96
2023/07/01 10:23:01;;;;;;;1.10;0.90;;;18.90;99.90;;;;;;4928603;23;20067;-43
2023/07/01 10:25:34;;;;;;;1.00;0.88;;;19.00;99.90;;;;;;4921958;29;20605;-43
2023/07/01 10:28:00;;;;;;;2.33;0.88;;;18.90;99.90;;;;;;4934297;29;20047;-43
2023/07/01 10:30:46;;;;;;;1.60;0.88;;;18.80;99.90;;;;;;4941190;29;20036;-44
2023/07/01 10:33:27;;;;;;;1.23;0.90;;;18.80;99.90;;;;;;4936142;29;20086;-44
2023/07/01 10:36:09;;;;;;;1.50;0.80;;;18.70;99.90;;;;;;4936441;29;20057;-43
2023/07/01 10:38:36;;;;;;;2.90;0.90;;;18.80;99.90;;;;;;4939592;29;20051;-43
2023/07/01 10:41:03;;;;;;;1.75;0.90;;;18.90;99.90;;;;;;4942458;29;20130;-44
2023/07/01 10:43:33;;;;;;;2.55;1.10;;;18.90;99.90;;;;;;4934921;29;20050;-44
2023/07/01 10:46:22;;;;;;;1.25;0.98;;;19.10;99.90;;;;;;4933257;29;20122;-44
2023/07/01 10:49:14;;;;;;;2.13;1.02;;;19.10;99.90;;;;;;4945812;28;20122;-43
2023/07/01 10:51:46;;;;;;;2.78;1.50;;;19.20;99.90;;;;;;4941909;29;20051;-44
2023/07/01 10:54:11;;;;;;;2.35;1.60;;;19.30;99.90;;;;;;4943954;29;20113;-43
2023/07/01 10:56:39;;;;;;;4.25;1.50;;;19.40;99.90;;;;;;4926279;29;20050;-43
2023/07/01 10:59:17;;;;;;;2.67;1.10;;;19.40;99.90;;;;;;4930491;29;20526;-44
2023/07/01 11:01:45;;;;;;;1.65;1.20;;;19.40;99.90;;;;;;4944868;29;20394;-44
2023/07/01 11:04:11;;;;;;;3.63;1.30;;;19.40;99.90;;;;;;4940849;29;20545;-44
2023/07/01 11:06:53;;;;;;;3.67;1.92;;;19.30;99.90;;;;;;4945651;29;20091;-45
2023/07/01 11:09:32;;;;;;;1.88;1.40;;;19.20;99.90;;;;;;4940583;29;20385;-46
2023/07/01 11:11:59;;;;;;;1.77;1.42;;;19.20;99.90;;;;;;4927805;29;20122;-47
2023/07/01 11:14:38;;;;;;;1.45;1.00;;;19.10;99.90;;;;;;4942475;29;20048;-50
2023/07/01 11:22:14;;;;;;;1.55;1.45;;;18.80;99.90;;;;;;4930756;29;20420;-95
2023/07/01 11:24:40;;;;;;;2.28;1.70;;;18.70;99.90;;;;;;4900708;29;20050;-93
2023/07/01 11:27:08;;;;;;;2.57;1.90;;;18.70;99.90;;;;;;4896311;29;20230;-92
2023/07/01 11:29:35;;;;;;;2.53;1.45;;;18.70;99.90;;;;;;4900539;29;20035;-94
2023/07/01 11:32:03;;;;;;;2.30;1.70;;;18.80;99.90;;;;;;4882091;29;20104;-93
2023/07/01 11:34:29;;;;;;;2.30;2.10;;;18.80;99.90;;;;;;4902059;29;20111;-93
2023/07/01 11:36:56;;;;;;;3.65;2.10;;;18.90;99.90;;;;;;4897243;29;20039;-92
2023/07/01 11:39:23;;;;;;;2.42;2.22;;;18.90;99.90;;;;;;4895487;29;20048;-91
2023/07/01 11:41:55;;;;;;;2.70;2.50;;;19.10;99.90;;;;;;4902358;29;20103;-94
2023/07/01 11:44:25;;;;;;;2.80;2.20;;;19.20;99.90;;;;;;4887178;29;20051;-94
2023/07/01 11:46:54;;;;;;;3.15;2.35;;;19.20;99.90;;;;;;4901824;29;20205;-94
2023/07/01 11:49:23;;;;;;;5.32;2.55;;;19.30;99.90;;;;;;4902567;29;20036;-94
2023/07/01 11:51:52;;;;;;;3.03;2.13;;;19.30;99.90;;;;;;4897225;29;20090;-94
2023/07/01 11:54:20;;;;;;;2.45;2.00;;;19.30;99.90;;;;;;4904321;29;20043;-94
2023/07/01 11:56:47;;;;;;;2.92;1.95;;;19.20;99.90;;;;;;4903542;29;20042;-94
2023/07/01 11:59:29;;;;;;;3.08;1.85;;;19.20;99.90;;;;;;4900073;29;20047;-95
2023/07/01 12:02:00;;;;;;;2.17;1.98;;;19.30;99.90;;;;;;4893424;29;20377;-94
2023/07/01 12:04:29;;;;;;;2.58;2.28;;;19.20;99.90;;;;;;4896220;29;20161;-95
2023/07/01 12:07:11;;;;;;;3.33;2.55;;;19.20;99.90;;;;;;4888841;29;20419;-94
2023/07/01 12:09:40;;;;;;;3.13;2.67;;;19.30;99.90;;;;;;4892248;29;20071;-95
2023/07/01 12:12:07;;;;;;;3.97;2.85;;;19.40;99.90;;;;;;4903140;29;20055;-96
2023/07/01 12:14:41;;;;;;;3.90;3.30;;;19.50;99.90;;;;;;4903039;29;20046;-94
2023/07/01 12:17:22;;;;;;;4.72;3.22;;;19.70;99.90;;;;;;4903811;29;20135;-96
2023/07/01 12:23:18;;;;;;;4.45;3.03;;;19.70;99.90;;;;;;4916998;28;20044;-96
2023/07/01 12:26:19;;;;;;;4.70;3.40;;;19.60;99.90;;;;;;4941860;29;20396;-96
2023/07/01 12:28:56;;;;;;;3.47;3.13;;;19.60;99.90;;;;;;4926173;29;20047;-96
2023/07/01 12:31:23;;;;;;;3.20;2.92;;;19.60;99.90;;;;;;4924423;29;20130;-95
2023/07/01 12:33:48;;;;;;;3.30;2.83;;;19.70;99.90;;;;;;4920068;29;20039;-92
2023/07/01 12:36:15;;;;;;;3.00;2.70;;;19.80;99.90;;;;;;4916537;28;20490;-91
2023/07/01 12:38:41;;;;;;;3.30;3.00;;;19.90;99.90;;;;;;4924960;28;20054;-91
2023/07/01 12:41:07;;;;;;;3.08;2.50;;;20.10;99.90;;;;;;4916848;28;20036;-93
2023/07/01 12:43:33;;;;;;;2.95;2.58;;;20.30;99.90;;;;;;4905361;29;20047;-89
2023/07/01 12:45:58;;;;;;;5.63;3.70;;;20.40;99.90;;;;;;4922334;29;20152;-93
2023/07/01 12:48:24;;;;;;;4.68;3.10;;;20.40;99.90;;;;;;4889798;28;20042;-90
2023/07/01 12:50:51;;;;;;;2.88;2.58;;;20.40;99.90;;;;;;4888988;29;20086;-94
2023/07/01 12:53:17;;;;;;;3.75;2.03;;;20.40;99.90;;;;;;4914313;29;20047;-93
2023/07/01 12:55:47;;;;;;;2.03;1.80;;;20.50;99.90;;;;;;4894836;29;20039;-91
2023/07/01 12:58:13;;;;;;;3.53;1.98;;;20.50;99.90;;;;;;4913500;29;20479;-91
2023/07/01 13:00:41;;;;;;;3.05;2.10;;;20.50;99.90;;;;;;4901318;29;20047;-91